CheckWX is a tool to help pilots better visualize weather data.  It is not intended as a substitute for an official pre-flight weather briefing.

00:56:05 UTC

KDTA METAR
Delta Municipal Airport
Delta, Utah, USA
Current

21 mins ago

KDTA 240035Z AUTO 25005KT 7SM SCT026 SCT035 OVC065 08/03 A3001 RMK AO1
Observed
Mar-24 @ 00:35 UTC
Wind
  • 250° at 5 KTS
Visibility
7 SM
Flight Rules
VFR
Cloud Levels
  • Scattered at 2,600' AGL
  • Scattered at 3,500' AGL
  • Overcast at 6,500' AGL
Temperature
C / 46°F
Dewpoint
C / 37°F
Humidity
71%
Altimeter
30.01" Hg
Pressure
1016.22 hPa
Previous

41 mins ago

KDTA 240015Z AUTO 22006KT 10SM BKN055 OVC065 10/00 A3000 RMK AO1
Observed
Mar-24 @ 00:15 UTC
Wind
  • 220° at 6 KTS
Visibility
10 SM
Flight Rules
VFR
Cloud Levels
  • Broken at 5,500' AGL
  • Overcast at 6,500' AGL
Temperature
10°C / 50°F
Dewpoint
C / 32°F
Humidity
50%
Altimeter
30" Hg
Pressure
1015.92 hPa
Previous

1 hour ago

KDTA 232355Z AUTO 00000KT 10SM BKN075 OVC095 11/00 A2999 RMK AO1
Observed
Mar-23 @ 23:55 UTC
Visibility
10 SM
Flight Rules
VFR
Cloud Levels
  • Broken at 7,500' AGL
  • Overcast at 9,500' AGL
Temperature
11°C / 52°F
Dewpoint
C / 32°F
Humidity
47%
Altimeter
29.99" Hg
Pressure
1015.62 hPa